createdAt,value
2022-08-26T00:01:19.318Z,52.29
2022-08-26T00:03:56.102Z,52.06
2022-08-26T00:06:23.063Z,51.78
2022-08-26T00:08:50.163Z,51.89
2022-08-26T00:11:26.265Z,52.02
2022-08-26T00:13:55.392Z,52.06
2022-08-26T00:16:25.290Z,52.22
2022-08-26T00:18:52.565Z,52.28
2022-08-26T00:21:19.487Z,52.45
2022-08-26T00:23:46.100Z,52.62
2022-08-26T00:26:13.839Z,52.68
2022-08-26T00:28:40.575Z,52.83
2022-08-26T00:31:07.769Z,52.79
2022-08-26T00:33:38.997Z,52.94
2022-08-26T00:36:07.765Z,53.00
2022-08-26T00:38:37.925Z,53.14
2022-08-26T00:41:06.113Z,53.21
2022-08-26T00:43:46.160Z,53.54
2022-08-26T00:46:28.187Z,53.82
2022-08-26T00:49:03.099Z,54.01
2022-08-26T00:51:30.850Z,54.19
2022-08-26T00:54:04.811Z,54.48
2022-08-26T00:56:50.270Z,54.74
2022-08-26T00:59:19.561Z,54.96
2022-08-26T01:01:46.498Z,54.96
2022-08-26T01:04:19.217Z,54.94
2022-08-26T01:06:48.730Z,54.84
2022-08-26T01:09:16.281Z,54.77
2022-08-26T01:11:43.419Z,54.79
2022-08-26T01:14:11.793Z,54.71
2022-08-26T01:16:39.320Z,54.74
2022-08-26T01:19:31.463Z,54.66
2022-08-26T01:22:04.852Z,54.91
2022-08-26T01:24:31.726Z,55.02
2022-08-26T01:27:04.501Z,55.04
2022-08-26T01:29:33.233Z,55.09
2022-08-26T01:32:02.294Z,55.20
2022-08-26T01:34:36.243Z,54.91
2022-08-26T01:37:15.608Z,54.88
2022-08-26T01:39:46.760Z,54.91
2022-08-26T01:42:15.097Z,54.74
2022-08-26T01:44:46.715Z,54.75
2022-08-26T01:47:16.854Z,54.96
2022-08-26T01:49:47.710Z,55.16
2022-08-26T01:52:23.422Z,55.48
2022-08-26T01:54:55.966Z,55.80
2022-08-26T01:57:24.267Z,55.92
2022-08-26T01:59:52.572Z,56.22
2022-08-26T02:02:20.461Z,56.36
2022-08-26T02:04:52.613Z,56.45
2022-08-26T02:07:21.531Z,56.70
2022-08-26T02:09:48.941Z,56.91
2022-08-26T02:12:18.893Z,57.10
2022-08-26T02:14:59.161Z,57.17
2022-08-26T02:17:39.297Z,57.43
2022-08-26T02:20:13.118Z,57.35
2022-08-26T02:22:42.205Z,57.51
2022-08-26T02:25:27.557Z,57.70
2022-08-26T02:27:56.112Z,57.86
2022-08-26T02:30:32.184Z,57.97
2022-08-26T02:33:03.014Z,58.23
2022-08-26T02:35:31.585Z,58.43
2022-08-26T02:37:59.960Z,58.53
2022-08-26T02:40:34.735Z,58.64
2022-08-26T02:43:04.093Z,58.82
2022-08-26T02:45:35.768Z,59.02
2022-08-26T02:48:11.357Z,59.25
2022-08-26T02:50:38.120Z,59.25
2022-08-26T02:53:06.661Z,59.29
2022-08-26T02:55:34.312Z,59.47
2022-08-26T02:58:01.010Z,59.68
2022-08-26T03:00:28.320Z,59.78
2022-08-26T03:02:55.307Z,59.95
2022-08-26T03:05:24.025Z,60.04
2022-08-26T03:07:52.088Z,60.06
2022-08-26T03:10:19.465Z,59.98
2022-08-26T03:12:47.323Z,60.15
2022-08-26T03:15:17.980Z,60.30
2022-08-26T03:17:47.317Z,60.33
2022-08-26T03:20:15.649Z,60.43
2022-08-26T03:22:44.596Z,60.51
2022-08-26T03:25:14.260Z,60.64
2022-08-26T03:27:43.146Z,60.73
2022-08-26T03:30:30.518Z,60.95
2022-08-26T03:32:57.231Z,60.97
2022-08-26T03:35:25.280Z,60.92
2022-08-26T03:37:52.733Z,61.02
2022-08-26T03:40:20.591Z,60.93
2022-08-26T03:42:48.022Z,61.06
2022-08-26T03:45:17.189Z,61.00
2022-08-26T03:47:44.904Z,61.13
2022-08-26T03:50:14.861Z,61.31
2022-08-26T03:52:44.045Z,61.22
2022-08-26T03:55:11.364Z,61.32
2022-08-26T03:57:38.167Z,61.31
2022-08-26T04:00:11.204Z,61.26
2022-08-26T04:02:38.239Z,61.24
2022-08-26T04:05:05.521Z,61.15
2022-08-26T04:07:32.714Z,61.05
2022-08-26T04:09:59.965Z,61.07
2022-08-26T04:12:26.886Z,61.13
2022-08-26T04:14:53.568Z,61.32
2022-08-26T04:17:20.974Z,61.31
2022-08-26T04:19:54.878Z,61.23
2022-08-26T04:22:24.822Z,61.00
2022-08-26T04:24:52.184Z,61.06
2022-08-26T04:27:18.985Z,60.96
2022-08-26T04:29:46.127Z,61.06
2022-08-26T04:32:14.942Z,61.15
2022-08-26T04:34:43.206Z,61.27
2022-08-26T04:37:12.604Z,61.43
2022-08-26T04:39:39.273Z,61.49
2022-08-26T04:42:06.160Z,61.56
2022-08-26T04:44:36.147Z,61.52
2022-08-26T04:47:08.552Z,61.63
2022-08-26T04:49:36.632Z,61.74
2022-08-26T04:52:04.750Z,61.74
2022-08-26T04:54:32.418Z,61.90
2022-08-26T04:56:59.323Z,62.10
2022-08-26T04:59:25.927Z,62.13
2022-08-26T05:01:58.888Z,62.22
2022-08-26T05:04:26.399Z,62.25
2022-08-26T05:06:55.728Z,62.23
2022-08-26T05:09:27.133Z,62.31
2022-08-26T05:12:23.173Z,62.51
2022-08-26T05:14:52.504Z,62.78
2022-08-26T05:18:02.929Z,62.70
2022-08-26T05:21:03.984Z,62.91
2022-08-26T05:23:41.468Z,63.13
2022-08-26T05:26:51.028Z,63.22
2022-08-26T05:29:42.978Z,63.44
2022-08-26T05:32:25.192Z,63.41
2022-08-26T05:35:01.413Z,63.58
2022-08-26T05:38:13.505Z,63.79
2022-08-26T05:40:46.965Z,63.91
2022-08-26T05:43:22.863Z,63.95
2022-08-26T05:45:50.547Z,63.85
2022-08-26T05:48:22.672Z,63.82
2022-08-26T05:50:54.023Z,63.91
2022-08-26T05:53:27.236Z,64.05
2022-08-26T05:55:56.006Z,64.18
2022-08-26T05:58:23.099Z,64.29
2022-08-26T06:01:06.805Z,64.43
2022-08-26T06:03:35.616Z,64.26
2022-08-26T06:06:32.971Z,64.32
2022-08-26T06:09:11.123Z,64.44
2022-08-26T06:11:39.139Z,64.39
2022-08-26T06:14:07.738Z,64.02
2022-08-26T06:16:41.193Z,63.86
2022-08-26T06:19:11.264Z,64.08
2022-08-26T06:21:40.937Z,63.90
2022-08-26T06:24:31.847Z,63.64
2022-08-26T06:27:13.341Z,63.77
2022-08-26T06:29:41.313Z,63.55
2022-08-26T06:32:08.913Z,63.24
2022-08-26T06:34:36.248Z,63.33
2022-08-26T06:37:09.131Z,63.26
2022-08-26T06:39:40.134Z,63.21
2022-08-26T06:42:48.069Z,62.78
2022-08-26T06:45:39.043Z,62.28
2022-08-26T06:48:40.074Z,61.80
2022-08-26T06:51:13.447Z,62.05
2022-08-26T06:53:44.961Z,62.14
2022-08-26T06:56:16.112Z,62.01
2022-08-26T06:58:43.870Z,61.66
2022-08-26T07:01:20.121Z,61.36
2022-08-26T07:03:49.755Z,61.05
2022-08-26T07:06:38.185Z,60.52
2022-08-26T07:09:09.826Z,59.96
2022-08-26T07:11:46.672Z,59.58
2022-08-26T07:14:14.394Z,59.35
2022-08-26T07:17:02.038Z,59.10
2022-08-26T07:19:31.873Z,58.44
2022-08-26T07:22:03.618Z,58.11
2022-08-26T07:24:35.571Z,57.52
2022-08-26T07:27:16.278Z,56.85
2022-08-26T07:29:44.331Z,56.32
2022-08-26T07:32:14.952Z,55.89
2022-08-26T07:34:43.403Z,55.72
2022-08-26T07:37:21.492Z,55.56
2022-08-26T07:40:03.121Z,55.00
2022-08-26T07:42:30.964Z,54.34
2022-08-26T07:45:06.358Z,53.75
2022-08-26T07:47:34.487Z,53.54
2022-08-26T07:50:01.773Z,53.07
2022-08-26T07:52:30.830Z,52.84
2022-08-26T07:55:17.688Z,52.69
2022-08-26T07:58:05.111Z,52.26
2022-08-26T08:00:33.419Z,52.06
2022-08-26T08:03:05.023Z,51.85
2022-08-26T08:05:37.529Z,51.72
2022-08-26T08:08:27.049Z,51.16
2022-08-26T08:10:57.188Z,51.88
2022-08-26T08:13:26.581Z,52.17
2022-08-26T08:15:59.066Z,51.88
2022-08-26T08:18:37.473Z,51.52
2022-08-26T08:21:21.886Z,51.47
2022-08-26T08:23:59.929Z,51.61
2022-08-26T08:27:07.211Z,51.04
2022-08-26T08:30:24.171Z,50.76
2022-08-26T08:33:37.189Z,51.09
2022-08-26T08:37:25.261Z,51.08
2022-08-26T08:40:53.378Z,50.51
2022-08-26T08:44:12.856Z,49.68
2022-08-26T08:47:54.600Z,49.58
2022-08-26T08:51:24.825Z,49.62
2022-08-26T08:54:59.133Z,48.50
2022-08-26T08:58:38.659Z,47.27
2022-08-26T09:01:53.990Z,47.17
2022-08-26T09:05:15.273Z,45.76
2022-08-26T09:07:57.073Z,45.52
2022-08-26T09:10:45.275Z,45.64
2022-08-26T09:13:26.364Z,45.90
2022-08-26T09:16:13.289Z,45.64
2022-08-26T09:19:11.782Z,45.57
2022-08-26T09:21:38.369Z,44.85
2022-08-26T09:24:06.240Z,44.04
2022-08-26T09:27:18.390Z,42.98
2022-08-26T09:29:45.992Z,43.69
2022-08-26T09:32:27.028Z,43.88
2022-08-26T09:34:58.347Z,44.00
2022-08-26T09:40:35.343Z,42.96
2022-08-26T09:43:22.713Z,42.00
2022-08-26T09:45:59.220Z,42.08
2022-08-26T09:48:36.135Z,41.08
2022-08-26T09:51:06.549Z,41.15
2022-08-26T09:53:49.292Z,40.25
2022-08-26T09:56:25.016Z,40.53
2022-08-26T09:58:52.585Z,40.46
2022-08-26T10:01:34.252Z,39.58
2022-08-26T10:04:11.815Z,39.24
2022-08-26T10:06:55.114Z,39.46
2022-08-26T10:09:23.638Z,39.57
2022-08-26T10:11:58.999Z,39.38
2022-08-26T10:17:54.896Z,38.56
2022-08-26T10:20:36.001Z,38.35
2022-08-26T10:23:12.008Z,38.31
2022-08-26T10:26:07.844Z,38.37
2022-08-26T10:28:54.463Z,38.42
2022-08-26T10:31:29.626Z,38.22
2022-08-26T10:34:04.872Z,37.98
2022-08-26T10:40:02.815Z,37.65
2022-08-26T10:42:39.908Z,37.80
2022-08-26T10:45:24.691Z,37.97
2022-08-26T10:47:58.016Z,38.17
2022-08-26T10:50:35.474Z,34.96
2022-08-26T10:53:14.874Z,35.61
2022-08-26T10:56:02.456Z,37.06
2022-08-26T10:58:49.825Z,37.07
2022-08-26T11:01:43.445Z,37.50
2022-08-26T11:04:10.987Z,37.53
2022-08-26T11:06:38.001Z,37.44
2022-08-26T11:09:07.918Z,37.51
2022-08-26T11:11:44.818Z,37.39
2022-08-26T11:14:34.205Z,37.15
2022-08-26T11:17:46.486Z,36.86
2022-08-26T11:20:22.124Z,37.39
2022-08-26T11:22:52.294Z,37.46
2022-08-26T11:25:20.970Z,37.35
2022-08-26T11:27:47.481Z,37.37
2022-08-26T11:30:15.630Z,36.67
2022-08-26T11:32:53.022Z,36.12
2022-08-26T11:35:19.899Z,35.97
2022-08-26T11:38:01.056Z,36.48
2022-08-26T11:40:34.707Z,36.43
2022-08-26T11:43:06.869Z,34.84
2022-08-26T11:45:37.266Z,34.88
2022-08-26T11:48:22.783Z,35.43
2022-08-26T11:51:02.462Z,35.75
2022-08-26T11:53:32.412Z,35.28
2022-08-26T11:56:07.299Z,36.01
2022-08-26T11:58:34.805Z,36.06
2022-08-26T12:01:09.847Z,36.26
2022-08-26T12:03:40.772Z,35.31
2022-08-26T12:06:21.126Z,35.34
2022-08-26T12:08:48.116Z,34.90
2022-08-26T12:11:32.213Z,34.16
2022-08-26T12:14:15.522Z,34.33
2022-08-26T12:16:42.939Z,35.18
2022-08-26T12:19:28.131Z,34.81
2022-08-26T12:22:17.491Z,34.49
2022-08-26T12:24:50.789Z,34.77
2022-08-26T12:27:24.988Z,34.59
2022-08-26T12:30:12.474Z,34.12
2022-08-26T12:32:56.634Z,34.39
2022-08-26T12:35:25.370Z,33.95
2022-08-26T12:37:54.012Z,34.34
2022-08-26T12:40:39.104Z,34.11
2022-08-26T12:43:07.498Z,34.72
2022-08-26T12:45:38.495Z,34.27
2022-08-26T12:48:13.031Z,34.38
2022-08-26T12:50:48.128Z,34.61
2022-08-26T12:53:24.530Z,33.65
2022-08-26T12:56:01.616Z,33.19
2022-08-26T12:58:37.238Z,33.59
2022-08-26T13:01:03.886Z,32.88
2022-08-26T13:03:33.597Z,32.30
2022-08-26T13:06:29.014Z,32.34
2022-08-26T13:09:00.449Z,33.24
2022-08-26T13:11:26.952Z,33.24
2022-08-26T13:13:56.374Z,33.17
2022-08-26T13:16:24.358Z,31.92
2022-08-26T13:18:54.704Z,32.03
2022-08-26T13:21:24.554Z,32.72
2022-08-26T13:23:52.451Z,33.31
2022-08-26T13:26:19.807Z,33.68
2022-08-26T13:28:53.248Z,32.71
2022-08-26T13:31:30.772Z,32.50
2022-08-26T13:33:57.950Z,32.14
2022-08-26T13:36:24.686Z,30.96
2022-08-26T13:38:52.101Z,30.68
2022-08-26T13:41:23.610Z,30.36
2022-08-26T13:43:58.779Z,31.69
2022-08-26T13:46:27.787Z,32.50
2022-08-26T13:48:56.473Z,32.58
2022-08-26T13:51:24.349Z,32.30
2022-08-26T13:53:51.776Z,32.62
2022-08-26T13:56:19.517Z,32.14
2022-08-26T13:58:47.138Z,31.56
2022-08-26T14:01:15.351Z,31.71
2022-08-26T14:03:42.640Z,31.54
2022-08-26T14:06:10.289Z,31.74
2022-08-26T14:08:38.259Z,32.16
2022-08-26T14:11:05.661Z,32.15
2022-08-26T14:13:32.280Z,31.96
2022-08-26T14:16:00.863Z,31.95
2022-08-26T14:18:32.596Z,31.93
2022-08-26T14:20:59.488Z,32.02
2022-08-26T14:23:26.829Z,31.81
2022-08-26T14:25:53.614Z,31.20
2022-08-26T14:28:20.354Z,30.50
2022-08-26T14:30:53.534Z,30.93
2022-08-26T14:33:25.574Z,30.79
2022-08-26T14:36:12.924Z,31.11
2022-08-26T14:38:39.681Z,30.94
2022-08-26T14:41:06.374Z,30.70
2022-08-26T14:43:33.639Z,29.53
2022-08-26T14:46:00.456Z,30.19
2022-08-26T14:48:27.102Z,30.82
2022-08-26T14:50:53.852Z,30.78
2022-08-26T14:53:38.979Z,30.64
2022-08-26T14:56:05.628Z,31.02
2022-08-26T14:58:34.843Z,31.52
2022-08-26T15:01:04.344Z,31.13
2022-08-26T15:03:31.187Z,31.10
2022-08-26T15:05:58.826Z,30.91
2022-08-26T15:08:25.661Z,30.27
2022-08-26T15:10:52.272Z,30.28
2022-08-26T15:13:19.399Z,30.19
2022-08-26T15:15:46.365Z,29.83
2022-08-26T15:18:13.137Z,29.79
2022-08-26T15:20:40.502Z,29.37
2022-08-26T15:23:07.267Z,29.38
2022-08-26T15:25:34.460Z,29.55
2022-08-26T15:28:01.357Z,29.59
2022-08-26T15:30:28.099Z,29.44
2022-08-26T15:32:54.786Z,29.57
2022-08-26T15:35:21.513Z,29.64
2022-08-26T15:40:17.828Z,29.39
2022-08-26T15:42:54.349Z,29.20
2022-08-26T15:45:28.122Z,29.30
2022-08-26T15:48:35.303Z,29.08
2022-08-26T15:51:35.187Z,29.26
2022-08-26T15:54:13.632Z,29.13
2022-08-26T15:56:40.403Z,29.34
2022-08-26T15:59:07.726Z,29.77
2022-08-26T16:01:35.508Z,29.90
2022-08-26T16:04:04.116Z,29.90
2022-08-26T16:06:33.190Z,29.88
2022-08-26T16:09:01.053Z,29.97
2022-08-26T16:11:29.026Z,29.89
2022-08-26T16:13:55.927Z,29.52
2022-08-26T16:16:23.034Z,30.04
2022-08-26T16:18:49.734Z,30.06
2022-08-26T16:21:19.462Z,30.30
2022-08-26T16:23:46.832Z,30.30
2022-08-26T16:26:17.311Z,30.40
2022-08-26T16:28:44.075Z,30.44
2022-08-26T16:31:11.120Z,30.47
2022-08-26T16:33:37.756Z,30.59
2022-08-26T16:36:05.964Z,30.66
2022-08-26T16:38:33.177Z,30.86
2022-08-26T16:41:00.552Z,31.17
2022-08-26T16:43:28.036Z,31.81
2022-08-26T16:45:55.364Z,32.35
2022-08-26T16:48:23.081Z,32.77
2022-08-26T16:50:51.080Z,33.33
2022-08-26T16:53:18.102Z,33.74
2022-08-26T16:55:45.775Z,34.13
2022-08-26T16:58:12.476Z,34.39
2022-08-26T17:00:39.224Z,34.81
2022-08-26T17:03:05.984Z,34.88
2022-08-26T17:05:32.679Z,34.76
2022-08-26T17:08:00.113Z,34.75
2022-08-26T17:10:29.568Z,35.04
2022-08-26T17:12:56.725Z,34.86
2022-08-26T17:15:23.801Z,34.87
2022-08-26T17:17:52.306Z,34.87
2022-08-26T17:20:20.509Z,35.12
2022-08-26T17:22:49.305Z,35.55
2022-08-26T17:25:31.137Z,36.00
2022-08-26T17:27:58.564Z,36.28
2022-08-26T17:30:25.649Z,36.40
2022-08-26T17:32:52.440Z,36.47
2022-08-26T17:35:19.675Z,36.77
2022-08-26T17:37:46.300Z,37.04
2022-08-26T17:40:17.019Z,37.00
2022-08-26T17:42:43.736Z,37.08
2022-08-26T17:45:11.344Z,36.94
2022-08-26T17:47:38.541Z,37.22
2022-08-26T17:50:08.648Z,37.41
2022-08-26T17:52:36.582Z,37.61
2022-08-26T17:55:04.963Z,38.06
2022-08-26T17:57:32.131Z,38.29
2022-08-26T18:00:11.456Z,38.05
2022-08-26T18:02:39.150Z,38.51
2022-08-26T18:05:07.896Z,38.79
2022-08-26T18:07:34.955Z,38.93
2022-08-26T18:10:14.847Z,39.07
2022-08-26T18:12:42.040Z,39.12
2022-08-26T18:15:11.284Z,39.37
2022-08-26T18:17:38.585Z,39.47
2022-08-26T18:20:11.875Z,39.35
2022-08-26T18:22:40.084Z,39.37
2022-08-26T18:25:07.998Z,39.40
2022-08-26T18:27:35.895Z,39.49
2022-08-26T18:30:05.457Z,39.64
2022-08-26T18:32:32.343Z,39.73
2022-08-26T18:34:59.233Z,39.82
2022-08-26T18:37:28.016Z,40.10
2022-08-26T18:39:58.794Z,40.27
2022-08-26T18:42:26.472Z,40.07
2022-08-26T18:44:53.628Z,39.94
2022-08-26T18:47:22.053Z,40.13
2022-08-26T18:49:48.701Z,40.62
2022-08-26T18:52:16.340Z,40.69
2022-08-26T18:54:43.743Z,40.91
2022-08-26T18:57:11.597Z,41.02
2022-08-26T18:59:40.366Z,41.06
2022-08-26T19:02:07.579Z,40.80
2022-08-26T19:04:34.500Z,40.62
2022-08-26T19:07:01.149Z,40.29
2022-08-26T19:09:27.822Z,40.08
2022-08-26T19:14:27.407Z,40.38
2022-08-26T19:16:54.109Z,40.15
2022-08-26T19:19:24.996Z,40.05
2022-08-26T19:21:52.832Z,39.99
2022-08-26T19:24:22.597Z,39.97
2022-08-26T19:26:57.534Z,39.87
2022-08-26T19:29:28.134Z,39.78
2022-08-26T19:31:54.945Z,39.85
2022-08-26T19:34:22.202Z,39.85
2022-08-26T19:36:49.545Z,39.69
2022-08-26T19:39:16.218Z,39.70
2022-08-26T19:41:43.426Z,39.70
2022-08-26T19:44:33.226Z,39.86
2022-08-26T19:47:01.008Z,39.87
2022-08-26T19:49:27.592Z,40.00
2022-08-26T19:51:54.278Z,40.07
2022-08-26T19:54:23.749Z,40.15
2022-08-26T19:56:51.565Z,40.07
2022-08-26T19:59:18.301Z,40.26
2022-08-26T20:01:44.973Z,40.51
2022-08-26T20:04:11.967Z,40.69
2022-08-26T20:06:39.102Z,40.72
2022-08-26T20:09:05.732Z,40.85
2022-08-26T20:11:32.361Z,40.92
2022-08-26T20:13:59.127Z,41.07
2022-08-26T20:16:25.853Z,41.29
2022-08-26T20:19:11.061Z,41.67
2022-08-26T20:21:40.143Z,41.73
2022-08-26T20:24:16.639Z,42.08
2022-08-26T20:26:44.321Z,42.35
2022-08-26T20:29:14.453Z,42.58
2022-08-26T20:31:43.381Z,42.91
2022-08-26T20:34:11.305Z,42.96
2022-08-26T20:36:39.513Z,43.26
2022-08-26T20:39:06.385Z,43.39
2022-08-26T20:41:33.987Z,43.53
2022-08-26T20:44:01.775Z,43.74
2022-08-26T20:46:29.122Z,43.92
2022-08-26T20:48:55.772Z,43.98
2022-08-26T20:51:26.776Z,44.15
2022-08-26T20:53:53.941Z,44.23
2022-08-26T20:56:24.231Z,44.28
2022-08-26T20:58:53.424Z,44.33
2022-08-26T21:01:25.774Z,44.23
2022-08-26T21:03:54.131Z,44.19
2022-08-26T21:06:20.857Z,44.11
2022-08-26T21:08:48.749Z,43.99
2022-08-26T21:11:16.721Z,43.93
2022-08-26T21:14:03.833Z,44.03
2022-08-26T21:16:30.222Z,44.25
2022-08-26T21:18:57.208Z,44.43
2022-08-26T21:21:27.558Z,44.74
2022-08-26T21:23:56.301Z,45.06
2022-08-26T21:26:24.583Z,45.29
2022-08-26T21:28:51.367Z,45.55
2022-08-26T21:31:20.907Z,45.76
2022-08-26T21:33:48.015Z,46.00
2022-08-26T21:36:14.780Z,46.29
2022-08-26T21:38:41.681Z,46.58
2022-08-26T21:41:12.251Z,46.74
2022-08-26T21:43:41.000Z,46.85
2022-08-26T21:46:13.981Z,46.97
2022-08-26T21:48:50.745Z,46.97
2022-08-26T21:51:21.014Z,47.08
2022-08-26T21:53:48.417Z,47.14
2022-08-26T21:56:17.455Z,47.19
2022-08-26T21:58:45.273Z,47.31
2022-08-26T22:01:16.121Z,47.33
2022-08-26T22:03:47.354Z,47.41
2022-08-26T22:06:20.112Z,47.50
2022-08-26T22:08:47.276Z,47.64
2022-08-26T22:11:15.039Z,47.69
2022-08-26T22:13:42.899Z,47.59
2022-08-26T22:16:10.670Z,47.64
2022-08-26T22:18:38.269Z,47.79
2022-08-26T22:21:10.297Z,47.92
2022-08-26T22:23:38.532Z,48.04
2022-08-26T22:26:08.295Z,48.11
2022-08-26T22:28:35.919Z,48.29
2022-08-26T22:31:03.153Z,48.40
2022-08-26T22:33:29.816Z,48.48
2022-08-26T22:35:56.500Z,48.70
2022-08-26T22:38:23.244Z,48.82
2022-08-26T22:40:56.216Z,49.09
2022-08-26T22:43:24.107Z,49.35
2022-08-26T22:45:52.463Z,49.58
2022-08-26T22:48:22.368Z,49.68
2022-08-26T22:50:56.101Z,49.84
2022-08-26T22:53:25.917Z,49.94
2022-08-26T22:55:52.512Z,50.11
2022-08-26T22:58:19.879Z,50.13
2022-08-26T23:00:49.889Z,50.23
2022-08-26T23:03:18.331Z,50.23
2022-08-26T23:05:45.189Z,50.49
2022-08-26T23:08:13.503Z,50.66
2022-08-26T23:10:43.547Z,50.72
2022-08-26T23:13:11.740Z,50.77
2022-08-26T23:15:38.925Z,50.79
2022-08-26T23:18:05.896Z,51.02
2022-08-26T23:20:33.696Z,51.24
2022-08-26T23:23:01.160Z,51.51
2022-08-26T23:25:29.129Z,51.62
2022-08-26T23:27:56.536Z,51.72
2022-08-26T23:30:26.132Z,51.75
2022-08-26T23:32:53.573Z,51.72
2022-08-26T23:35:21.098Z,51.88
2022-08-26T23:37:52.987Z,52.10
2022-08-26T23:40:24.990Z,52.19
2022-08-26T23:42:56.531Z,52.30
2022-08-26T23:45:24.672Z,52.57
2022-08-26T23:47:51.449Z,52.81
2022-08-26T23:50:21.062Z,52.93
2022-08-26T23:53:08.111Z,52.90
2022-08-26T23:55:50.334Z,52.94
2022-08-26T23:58:19.389Z,53.08
